Flight Track Log - Related Links

Times and Time Zones

All times are in EDT time to prevent confusion due to time zone crossing. See the ASQ5358 flight status page for this flight to view local times or setup timezone preferences in your user account.


Time Position Orientation Groundspeed Altitude Reporting Facility
EDT Latitude Longitude Course Direction KTS MPH feet Rate Location/Type
Thu 08:15:44 AM 33.6536 -84.4931 282° West 407 468 2,900  Level Atlanta Center
Thu 08:16:44 AM 33.6678 -84.5756 282° West 316 364 5,500 2,450 Climbing Atlanta Center
Thu 08:17:44 AM 33.6819 -84.6631 281° West 271 312 7,800 2,550 Climbing Atlanta Center
Thu 08:18:44 AM 33.6961 -84.7453 282° West 285 328 10,600 2,400 Climbing Atlanta Center
Thu 08:19:44 AM 33.7103 -84.8331 281° West 285 328 12,600 1,800 Climbing Atlanta Center
Thu 08:20:44 AM 33.7264 -84.9356 281° West 302 348 14,200 1,650 Climbing Atlanta Center
Thu 08:21:44 AM 33.7422 -85.0456 280° West 327 376 15,900 1,500 Climbing Atlanta Center
Thu 08:22:44 AM 33.7558 -85.1556 278° West 339 390 17,200 1,400 Climbing Atlanta Center
Thu 08:23:44 AM 33.7756 -85.2783 281° West 339 390 18,700 1,500 Climbing Atlanta Center
Thu 08:24:44 AM 33.7953 -85.3861 282° West 339 390 20,200 1,150 Climbing Atlanta Center
Thu 08:25:44 AM 33.8147 -85.4989 282° West 339 390 21,000 850 Climbing Atlanta Center
Thu 08:26:44 AM 33.8342 -85.6144 281° West 346 398 21,900 850 Climbing Atlanta Center
Thu 08:27:44 AM 33.8642 -85.7300 287° West 358 412 22,700 800 Climbing Atlanta Center
Thu 08:28:44 AM 33.9000 -85.8433 291° West 364 419 23,500 800 Climbing Atlanta Center
Thu 08:29:44 AM 33.9378 -85.9617 291° West 369 425 24,300 800 Climbing Atlanta Center
Thu 08:30:44 AM 33.9797 -86.0831 293° West 383 441 25,100 800 Climbing Atlanta Center
Thu 08:31:44 AM 34.0131 -86.2067 288° West 383 441 25,900 800 Climbing Atlanta Center
Thu 08:32:44 AM 34.0464 -86.3303 288° West 388 447 26,700 700 Climbing Atlanta Center
Thu 08:33:44 AM 34.0817 -86.4517 289° West 393 452 27,300 433 Climbing Atlanta Center
Thu 08:35:44 AM 34.1525 -86.7103 288° West 406 467 28,000 233 Climbing Memphis Center
Thu 08:36:44 AM 34.1875 -86.8419 288° West 411 473 28,000  Level Memphis Center
Thu 08:37:44 AM 34.2244 -86.9686 289° West 434 499 28,000  Level Memphis Center
Thu 08:38:44 AM 34.2633 -87.1000 290° West 437 503 28,000  Level Memphis Center
Thu 08:39:44 AM 34.3028 -87.2469 288° West 409 471 28,000  Level Memphis Center
Thu 08:40:44 AM 34.3367 -87.3589 290° West 402 463 28,000  Level Memphis Center
Thu 08:41:44 AM 34.3667 -87.4811 287° West 392 451 28,000  Level Memphis Center
Thu 08:42:44 AM 34.3986 -87.6008 288° West 379 436 28,000  Level Memphis Center
Thu 08:43:44 AM 34.4306 -87.7208 288° West 374 430 28,000  Level Memphis Center
Thu 08:44:44 AM 34.4622 -87.8431 287° West 374 430 28,000  Level Memphis Center
Thu 08:45:44 AM 34.4939 -87.9606 288° West 375 432 28,000  Level Memphis Center
Thu 08:46:44 AM 34.5275 -88.0808 289° West 375 432 28,000  Level Memphis Center
Thu 08:47:44 AM 34.5589 -88.2033 287° West 380 437 28,000  Level Memphis Center
Thu 08:48:44 AM 34.5900 -88.3264 287° West 385 443 28,000  Level Memphis Center
Thu 08:49:44 AM 34.6233 -88.4467 289° West 379 436 28,000  Level Memphis Center
Thu 08:50:44 AM 34.6564 -88.5722 288° West 363 418 28,000  Level Memphis Center
Thu 08:51:44 AM 34.6875 -88.6953 287° West 368 423 28,000  Level Memphis Center
Thu 08:52:44 AM 34.7181 -88.8158 287° West 373 429 28,000  Level Memphis Center
Thu 08:53:44 AM 34.7508 -88.9342 289° West 379 436 28,000  Level Memphis Center
Thu 08:54:44 AM 34.7836 -89.0575 288° West 381 438 28,000  Level Memphis Center
Thu 08:55:44 AM 34.8139 -89.1783 287° West 376 433 28,000  Level Memphis Center
Thu 08:56:44 AM 34.8442 -89.2994 287° West 376 433 28,000  Level Memphis Center
Thu 08:57:44 AM 34.8722 -89.4078 288° West 376 433 28,000  Level Memphis Center
Thu 08:58:44 AM 34.9044 -89.5292 288° West 376 433 28,000  Level Memphis Center
Thu 08:59:44 AM 34.9386 -89.6528 289° West 376 433 28,000  Level Memphis Center
Thu 09:00:44 AM 34.9769 -89.7969 288° West 397 457 28,000  Level Memphis Center
Thu 09:01:44 AM 35.0025 -89.9186 284° West 390 449 28,000  Level Memphis Center
Thu 09:02:44 AM 35.0383 -90.0450 289° West 385 443 28,000  Level Memphis Center
Thu 09:03:44 AM 35.0697 -90.1517 290° West 385 443 28,000 -150 Level Memphis Center
Thu 09:04:44 AM 35.1075 -90.2708 291° West 378 435 27,700 -500 Descending Memphis Center
Thu 09:05:44 AM 35.1492 -90.4003 292° West 390 449 27,000 -350 Descending Memphis Center
Thu 09:06:44 AM 35.1867 -90.5247 290° West 395 455 27,000  Level Memphis Center
Thu 09:07:44 AM 35.2219 -90.6417 290° West 386 444 27,000  Level Memphis Center
Thu 09:08:44 AM 35.2592 -90.7589 291° West 380 437 27,000  Level Memphis Center
Thu 09:09:44 AM 35.2964 -90.8761 291° West 371 427 27,000  Level Memphis Center
Thu 09:10:44 AM 35.3353 -91.0036 291° West 371 427 27,000  Level Memphis Center
Thu 09:11:44 AM 35.3722 -91.1183 292° West 371 427 27,000  Level Memphis Center
Thu 09:12:44 AM 35.4089 -91.2386 291° West 371 427 27,000  Level Memphis Center
Thu 09:13:44 AM 35.4414 -91.3561 289° West 371 427 27,000  Level Memphis Center
Thu 09:14:44 AM 35.4800 -91.4711 292° West 371 427 27,000  Level Memphis Center
Thu 09:15:44 AM 35.5144 -91.5889 290° West 371 427 27,000  Level Memphis Center
Thu 09:16:44 AM 35.5528 -91.7094 291° West 371 427 27,000  Level Memphis Center
Thu 09:17:44 AM 35.5850 -91.8250 289° West 371 427 27,000  Level Memphis Center
Thu 09:18:44 AM 35.6211 -91.9431 291° West 371 427 27,000  Level Memphis Center
Thu 09:19:44 AM 35.6569 -92.0611 291° West 371 427 27,000  Level Memphis Center
Thu 09:20:44 AM 35.6908 -92.1769 290° West 366 421 27,000 -150 Level Memphis Center
Thu 09:21:44 AM 35.7225 -92.2875 289° West 375 432 26,700 -650 Descending Memphis Center
Thu 09:22:44 AM 35.7600 -92.4164 290° West 381 438 25,700 -1,000 Descending Memphis Center
Thu 09:23:44 AM 35.7997 -92.5453 291° West 393 452 24,700 -850 Descending Memphis Center
Thu 09:24:44 AM 35.8369 -92.6744 290° West 398 458 24,000 -350 Descending Memphis Center
Thu 09:25:44 AM 35.8722 -92.7933 290° West 392 451 24,000  Level Memphis Center
Thu 09:26:44 AM 35.9053 -92.9119 289° West 381 438 24,000 -600 Level Memphis Center
Thu 09:27:44 AM 35.9381 -93.0361 288° West 381 438 22,800 -1,700 Descending Memphis Center
Thu 09:28:44 AM 35.9731 -93.1553 290° West 381 438 20,600 -2,200 Descending Memphis Center
Thu 09:29:44 AM 36.0100 -93.2719 291° West 371 427 18,400 -2,200 Descending Memphis Center
Thu 09:30:44 AM 36.0489 -93.3864 293° West 371 427 16,200 -2,200 Descending Memphis Center
Thu 09:31:44 AM 36.1069 -93.4861 306° West 360 414 14,000 -2,150 Descending Memphis Center
Thu 09:32:44 AM 36.1586 -93.5858 303° West 354 407 11,900 -1,950 Descending Memphis Center
Thu 09:33:44 AM 36.2083 -93.6725 305° West 333 383 10,100 -1,750 Descending Memphis Center
Thu 09:34:44 AM 36.2519 -93.7567 303° West 309 356 8,400 -1,750 Descending Memphis Center
Thu 09:35:44 AM 36.2958 -93.8358 305° West 296 341 6,600 -1,300 Descending Memphis Center
Thu 09:36:44 AM 36.3392 -93.9175 303° West 285 328 5,800 -1,050 Descending Memphis Center
Thu 09:37:44 AM 36.3722 -94.0014 296° West 278 320 4,500 -900 Descending Memphis Center
Thu 09:38:44 AM 36.4011 -94.0825 294° West 265 305 4,000 -650 Descending Memphis Center
Thu 09:39:44 AM 36.4300 -94.1614 294° West 254 292 3,200 -500 Descending Memphis Center
Thu 09:40:44 AM 36.4572 -94.2297 296° West 242 278 3,000 -100 Descending Memphis Center
Thu 09:41:44 AM 36.4611 -94.3022 274° West 222 255 3,000  Level Memphis Center
Thu 09:42:44 AM 36.4489 -94.3583 255° West 212 244 3,000  Level Memphis Center
Thu 09:43:44 AM 36.3986 -94.3636 185° South 152 175 3,000  Level Memphis Center
Thu 09:45:00 AM 36.2764 -94.3047 159° South  Level FlightAware Approximate

Login

Don't have an account? Register now (free) for customized features, flight alerts, and more!